Terminal Aerodrome Forecast
Issued by NWS Sterling, VA

Current Version | Previous Version | Text Only | Print | Product List | Glossary Off
Versions: 1 2 3 4 5 6 7 8 9 10 11 12 13 14 15 16 17 18 19 20 21 22 23

621
FTUS41 KLWX 052333
TAFMRB
TAF
KMRB 052333Z 0600/0624 01004KT P6SM SCT015 OVC045
     FM060200 VRB03KT P6SM OVC030
     FM060300 36004KT P6SM OVC015
     FM060500 36005KT P6SM -SHRA OVC010
     FM060900 35006KT 5SM -SHRA OVC015
     FM061000 35006KT 3SM -SHRA OVC015
     FM061400 35009KT 3SM SHRA OVC025
     FM062200 35008KT 3SM -SHRA BR OVC020=

USA.gov is the U.S. government's official web portal to all federal, state and local government web resources and services.